createdAt,value
2022-11-28T00:01:14.121Z,3.80
2022-11-28T00:03:16.131Z,3.80
2022-11-28T00:05:18.145Z,3.90
2022-11-28T00:07:20.022Z,3.90
2022-11-28T00:09:22.070Z,3.80
2022-11-28T00:11:23.927Z,3.80
2022-11-28T00:13:25.668Z,3.80
2022-11-28T00:15:27.516Z,3.80
2022-11-28T00:17:29.243Z,3.80
2022-11-28T00:19:31.078Z,3.90
2022-11-28T00:21:33.472Z,3.90
2022-11-28T00:23:35.899Z,3.90
2022-11-28T00:25:37.524Z,3.90
2022-11-28T00:27:39.299Z,3.90
2022-11-28T00:29:41.007Z,3.90
2022-11-28T00:31:43.762Z,4.00
2022-11-28T00:33:46.191Z,4.00
2022-11-28T00:35:47.892Z,4.00
2022-11-28T00:37:49.658Z,4.00
2022-11-28T00:39:51.475Z,4.00
2022-11-28T00:41:53.145Z,4.00
2022-11-28T00:43:55.297Z,4.00
2022-11-28T00:45:57.270Z,4.00
2022-11-28T00:47:59.068Z,4.00
2022-11-28T00:50:00.754Z,4.00
2022-11-28T00:52:02.542Z,4.00
2022-11-28T00:54:05.858Z,4.10
2022-11-28T00:56:08.623Z,4.10
2022-11-28T00:58:10.428Z,4.20
2022-11-28T01:00:12.705Z,4.20
2022-11-28T01:02:14.489Z,4.20
2022-11-28T01:04:17.591Z,4.30
2022-11-28T01:06:28.948Z,4.30
2022-11-28T01:08:30.841Z,4.30
2022-11-28T01:10:32.751Z,4.30
2022-11-28T01:12:34.431Z,4.30
2022-11-28T01:14:36.263Z,4.30
2022-11-28T01:16:39.079Z,4.30
2022-11-28T01:18:40.790Z,4.30
2022-11-28T01:20:42.692Z,4.20
2022-11-28T01:22:44.464Z,4.20
2022-11-28T01:24:46.247Z,4.30
2022-11-28T01:26:48.305Z,4.30
2022-11-28T01:28:50.251Z,4.30
2022-11-28T01:30:51.895Z,4.40
2022-11-28T01:32:53.561Z,4.40
2022-11-28T01:34:55.382Z,4.30
2022-11-28T01:36:57.088Z,4.20
2022-11-28T01:38:58.931Z,4.20
2022-11-28T01:41:01.176Z,4.10
2022-11-28T01:43:02.834Z,4.10
2022-11-28T01:45:10.702Z,4.10
2022-11-28T01:47:12.516Z,4.10
2022-11-28T01:49:36.743Z,4.10
2022-11-28T01:51:42.305Z,4.10
2022-11-28T01:53:47.544Z,4.00
2022-11-28T01:55:55.826Z,4.00
2022-11-28T01:57:58.271Z,4.00
2022-11-28T02:00:06.297Z,4.00
2022-11-28T02:02:15.620Z,3.90
2022-11-28T02:04:17.484Z,3.90
2022-11-28T02:06:22.439Z,3.90
2022-11-28T02:08:25.626Z,3.90
2022-11-28T02:10:37.276Z,3.90
2022-11-28T02:13:09.943Z,3.80
2022-11-28T02:15:25.672Z,3.90
2022-11-28T02:17:42.390Z,3.90
2022-11-28T02:20:09.847Z,3.90
2022-11-28T02:22:36.662Z,3.90
2022-11-28T02:24:56.824Z,3.90
2022-11-28T02:27:16.068Z,3.80
2022-11-28T02:29:32.307Z,3.80
2022-11-28T02:32:01.784Z,3.70
2022-11-28T02:34:23.486Z,3.70
2022-11-28T02:36:38.170Z,3.80
2022-11-28T02:38:53.137Z,3.80
2022-11-28T02:41:10.160Z,3.90
2022-11-28T02:43:36.004Z,4.00
2022-11-28T02:45:49.745Z,4.00
2022-11-28T02:47:59.174Z,4.10
2022-11-28T02:50:09.036Z,4.10
2022-11-28T02:52:16.741Z,4.10
2022-11-28T02:54:20.848Z,4.10
2022-11-28T02:56:24.779Z,4.10
2022-11-28T02:58:26.654Z,4.00
2022-11-28T03:00:35.603Z,4.00
2022-11-28T03:02:37.793Z,3.90
2022-11-28T03:05:07.284Z,4.00
2022-11-28T03:07:08.984Z,3.90
2022-11-28T03:09:38.711Z,3.90
2022-11-28T03:11:58.475Z,3.90
2022-11-28T03:14:15.553Z,3.90
2022-11-28T03:16:44.949Z,4.00
2022-11-28T03:18:52.773Z,4.00
2022-11-28T03:21:00.296Z,4.00
2022-11-28T03:23:13.459Z,4.10
2022-11-28T03:25:36.109Z,4.10
2022-11-28T03:28:10.992Z,4.00
2022-11-28T03:30:38.061Z,4.10
2022-11-28T03:32:41.728Z,4.10
2022-11-28T03:34:47.420Z,4.10
2022-11-28T03:37:21.035Z,4.30
2022-11-28T03:39:29.901Z,4.40
2022-11-28T03:42:04.921Z,4.40
2022-11-28T03:44:16.795Z,4.60
2022-11-28T03:46:21.913Z,4.60
2022-11-28T03:48:28.138Z,4.70
2022-11-28T03:50:40.273Z,4.70
2022-11-28T03:52:47.997Z,4.60
2022-11-28T03:54:59.123Z,4.60
2022-11-28T03:57:15.605Z,4.70
2022-11-28T03:59:28.476Z,4.70
2022-11-28T04:01:36.621Z,4.80
2022-11-28T04:04:03.628Z,4.80
2022-11-28T04:06:28.087Z,4.90
2022-11-28T04:08:39.620Z,4.90
2022-11-28T04:10:49.990Z,4.90
2022-11-28T04:13:13.803Z,4.90
2022-11-28T04:15:23.062Z,4.80
2022-11-28T04:17:35.643Z,4.80
2022-11-28T04:19:43.716Z,4.60
2022-11-28T04:21:48.480Z,4.50
2022-11-28T04:23:52.733Z,4.50
2022-11-28T04:26:04.877Z,4.50
2022-11-28T04:28:14.964Z,4.50
2022-11-28T04:30:16.882Z,4.40
2022-11-28T04:32:20.375Z,4.40
2022-11-28T04:34:25.074Z,4.50
2022-11-28T04:36:28.659Z,4.60
2022-11-28T04:38:32.911Z,4.70
2022-11-28T04:40:49.496Z,4.80
2022-11-28T04:42:59.518Z,4.80
2022-11-28T04:45:16.654Z,4.90
2022-11-28T04:47:18.699Z,4.80
2022-11-28T04:49:20.832Z,4.70
2022-11-28T04:51:25.384Z,4.60
2022-11-28T04:53:30.085Z,4.50
2022-11-28T04:55:45.344Z,4.40
2022-11-28T04:57:57.096Z,4.30
2022-11-28T05:00:02.488Z,4.30
2022-11-28T05:02:06.371Z,4.30
2022-11-28T05:04:08.248Z,4.20
2022-11-28T05:06:10.200Z,4.20
2022-11-28T05:08:12.349Z,4.10
2022-11-28T05:10:15.525Z,4.10
2022-11-28T05:12:17.662Z,4.10
2022-11-28T05:14:19.405Z,4.10
2022-11-28T05:16:21.855Z,4.10
2022-11-28T05:18:23.633Z,4.10
2022-11-28T05:20:25.988Z,4.10
2022-11-28T05:22:27.797Z,4.20
2022-11-28T05:24:32.345Z,4.20
2022-11-28T05:26:35.527Z,4.30
2022-11-28T05:28:37.840Z,4.30
2022-11-28T05:30:39.484Z,4.30
2022-11-28T05:32:41.962Z,4.30
2022-11-28T05:34:43.855Z,4.30
2022-11-28T05:36:45.689Z,4.30
2022-11-28T05:38:48.027Z,4.30
2022-11-28T05:40:49.681Z,4.30
2022-11-28T05:42:51.464Z,4.30
2022-11-28T05:44:53.148Z,4.40
2022-11-28T05:46:55.033Z,4.50
2022-11-28T05:48:57.339Z,4.60
2022-11-28T05:50:59.126Z,4.60
2022-11-28T05:53:00.867Z,4.70
2022-11-28T05:55:02.675Z,4.80
2022-11-28T05:57:06.500Z,4.80
2022-11-28T05:59:08.261Z,4.70
2022-11-28T06:01:15.692Z,4.70
2022-11-28T06:03:17.317Z,4.60
2022-11-28T06:05:40.969Z,4.60
2022-11-28T06:07:40.829Z,4.60
2022-11-28T06:09:43.029Z,4.60
2022-11-28T06:11:44.850Z,4.70
2022-11-28T06:13:48.863Z,4.70
2022-11-28T06:15:50.633Z,4.70
2022-11-28T06:17:52.336Z,4.70
2022-11-28T06:19:54.002Z,4.70
2022-11-28T06:21:56.453Z,4.70
2022-11-28T06:24:00.192Z,4.70
2022-11-28T06:26:10.351Z,4.70
2022-11-28T06:28:11.997Z,4.70
2022-11-28T06:30:14.276Z,4.70
2022-11-28T06:32:21.709Z,4.70
2022-11-28T06:34:24.503Z,4.60
2022-11-28T06:36:26.868Z,4.60
2022-11-28T06:38:29.686Z,4.50
2022-11-28T06:40:32.346Z,4.60
2022-11-28T06:42:37.245Z,4.60
2022-11-28T06:44:39.029Z,4.60
2022-11-28T06:46:41.461Z,4.50
2022-11-28T06:48:43.737Z,4.50
2022-11-28T06:50:46.088Z,4.50
2022-11-28T06:52:47.923Z,4.50
2022-11-28T06:54:49.763Z,4.40
2022-11-28T06:56:51.520Z,4.30
2022-11-28T06:58:58.601Z,4.40
2022-11-28T07:01:07.850Z,4.30
2022-11-28T07:03:09.597Z,4.30
2022-11-28T07:05:11.364Z,4.20
2022-11-28T07:07:16.518Z,4.20
2022-11-28T07:09:18.685Z,4.30
2022-11-28T07:11:26.465Z,4.30
2022-11-28T07:13:28.181Z,4.40
2022-11-28T07:15:29.985Z,4.40
2022-11-28T07:17:31.623Z,4.50
2022-11-28T07:19:33.348Z,4.50
2022-11-28T07:21:35.071Z,4.60
2022-11-28T07:23:37.232Z,4.70
2022-11-28T07:25:38.997Z,4.70
2022-11-28T07:27:41.792Z,4.90
2022-11-28T07:29:43.626Z,4.90
2022-11-28T07:31:45.771Z,4.90
2022-11-28T07:33:49.421Z,5.00
2022-11-28T07:35:51.193Z,4.90
2022-11-28T07:37:52.906Z,4.90
2022-11-28T07:39:54.768Z,4.90
2022-11-28T07:41:56.528Z,4.80
2022-11-28T07:44:00.988Z,4.80
2022-11-28T07:46:07.988Z,4.80
2022-11-28T07:48:10.171Z,4.80
2022-11-28T07:50:11.820Z,4.80
2022-11-28T07:52:13.772Z,4.90
2022-11-28T07:54:15.535Z,4.90
2022-11-28T07:56:20.575Z,5.00
2022-11-28T07:58:22.380Z,5.00
2022-11-28T08:00:24.171Z,5.00
2022-11-28T08:02:27.204Z,5.10
2022-11-28T08:04:29.216Z,5.10
2022-11-28T08:06:31.943Z,5.20
2022-11-28T08:08:34.441Z,5.20
2022-11-28T08:10:36.129Z,5.30
2022-11-28T08:12:37.858Z,5.30
2022-11-28T08:14:39.550Z,5.30
2022-11-28T08:16:44.907Z,5.40
2022-11-28T08:18:47.840Z,5.50
2022-11-28T08:20:50.491Z,5.60
2022-11-28T08:22:52.512Z,5.60
2022-11-28T08:24:54.463Z,5.70
2022-11-28T08:26:56.176Z,5.70
2022-11-28T08:28:58.882Z,5.80
2022-11-28T08:31:08.103Z,5.80
2022-11-28T08:33:09.851Z,5.90
2022-11-28T08:35:11.529Z,5.90
2022-11-28T08:37:13.395Z,5.90
2022-11-28T08:39:30.297Z,6.00
2022-11-28T08:41:32.020Z,6.00
2022-11-28T08:43:34.655Z,6.10
2022-11-28T08:45:37.482Z,6.10
2022-11-28T08:47:39.252Z,6.20
2022-11-28T08:49:41.353Z,6.30
2022-11-28T08:51:43.266Z,6.30
2022-11-28T08:53:48.751Z,6.40
2022-11-28T08:55:51.250Z,6.50
2022-11-28T08:57:52.911Z,6.60
2022-11-28T08:59:54.752Z,6.70
2022-11-28T09:01:56.582Z,6.70
2022-11-28T09:03:58.370Z,6.70
2022-11-28T09:06:04.649Z,6.80
2022-11-28T09:08:10.222Z,6.80
2022-11-28T09:10:13.624Z,6.80
2022-11-28T09:12:15.298Z,6.80
2022-11-28T09:14:17.322Z,6.80
2022-11-28T09:16:19.172Z,6.90
2022-11-28T09:18:20.961Z,7.00
2022-11-28T09:20:22.719Z,6.90
2022-11-28T09:22:24.335Z,7.00
2022-11-28T09:24:26.055Z,7.00
2022-11-28T09:26:27.939Z,6.90
2022-11-28T09:28:29.725Z,6.80
2022-11-28T09:30:31.623Z,6.70
2022-11-28T09:32:33.984Z,6.70
2022-11-28T09:34:35.669Z,6.70
2022-11-28T09:36:37.392Z,6.70
2022-11-28T09:38:39.400Z,6.70
2022-11-28T09:40:44.622Z,6.80
2022-11-28T09:42:47.047Z,6.90
2022-11-28T09:44:52.971Z,6.90
2022-11-28T09:46:58.809Z,7.10
2022-11-28T09:49:03.450Z,7.20
2022-11-28T09:51:29.497Z,7.20
2022-11-28T09:53:39.130Z,7.20
2022-11-28T09:55:49.206Z,7.20
2022-11-28T09:57:52.392Z,7.20
2022-11-28T09:59:54.187Z,7.30
2022-11-28T10:02:20.126Z,7.30
2022-11-28T10:04:42.874Z,7.30
2022-11-28T10:06:44.612Z,7.30
2022-11-28T10:09:24.876Z,7.40
2022-11-28T10:11:50.952Z,7.30
2022-11-28T10:14:30.162Z,7.30
2022-11-28T10:16:43.882Z,7.20
2022-11-28T10:18:50.599Z,7.10
2022-11-28T10:21:09.600Z,7.20
2022-11-28T10:23:33.907Z,7.20
2022-11-28T10:25:40.408Z,7.20
2022-11-28T10:27:42.648Z,7.20
2022-11-28T10:29:59.671Z,7.20
2022-11-28T10:32:04.006Z,7.30
2022-11-28T10:34:08.555Z,7.30
2022-11-28T10:36:21.288Z,7.20
2022-11-28T10:38:27.302Z,7.20
2022-11-28T10:40:53.676Z,7.20
2022-11-28T10:43:12.407Z,7.20
2022-11-28T10:45:20.732Z,7.20
2022-11-28T10:47:43.284Z,7.30
2022-11-28T10:49:59.498Z,7.30
2022-11-28T10:52:20.133Z,7.40
2022-11-28T10:54:40.609Z,7.50
2022-11-28T10:57:03.109Z,7.50
2022-11-28T10:59:42.062Z,7.50
2022-11-28T11:01:48.812Z,7.80
2022-11-28T11:03:51.990Z,7.90
2022-11-28T11:05:53.911Z,7.90
2022-11-28T11:08:03.281Z,7.90
2022-11-28T11:10:32.395Z,7.90
2022-11-28T11:12:34.786Z,7.80
2022-11-28T11:14:39.993Z,7.80
2022-11-28T11:16:51.782Z,7.80
2022-11-28T11:18:55.488Z,7.80
2022-11-28T11:21:17.547Z,7.80
2022-11-28T11:23:21.831Z,7.70
2022-11-28T11:25:25.840Z,7.80
2022-11-28T11:27:27.634Z,7.80
2022-11-28T11:29:29.270Z,7.90
2022-11-28T11:31:44.093Z,7.90
2022-11-28T11:33:46.506Z,7.80
2022-11-28T11:35:49.583Z,7.90
2022-11-28T11:37:52.456Z,8.00
2022-11-28T11:39:54.323Z,8.00
2022-11-28T11:42:02.085Z,8.00
2022-11-28T11:44:15.683Z,8.00
2022-11-28T11:46:17.485Z,8.00
2022-11-28T11:48:47.916Z,8.10
2022-11-28T11:50:54.555Z,8.20
2022-11-28T11:53:03.632Z,8.20
2022-11-28T11:55:16.068Z,8.10
2022-11-28T11:57:32.757Z,8.10
2022-11-28T11:59:45.835Z,8.10
2022-11-28T12:01:52.855Z,8.10
2022-11-28T12:04:08.496Z,8.20
2022-11-28T12:06:28.114Z,8.30
2022-11-28T12:08:50.354Z,8.20
2022-11-28T12:11:16.534Z,8.30
2022-11-28T12:13:24.157Z,8.30
2022-11-28T12:15:56.613Z,8.40
2022-11-28T12:18:27.648Z,8.30
2022-11-28T12:20:48.744Z,8.30
2022-11-28T12:23:02.282Z,8.40
2022-11-28T12:25:11.349Z,8.40
2022-11-28T12:27:26.325Z,8.50
2022-11-28T12:29:39.747Z,8.70
2022-11-28T12:32:03.978Z,8.70
2022-11-28T12:34:53.276Z,8.60
2022-11-28T12:37:09.776Z,8.30
2022-11-28T12:39:49.559Z,8.10
2022-11-28T12:42:06.257Z,7.90
2022-11-28T12:44:38.368Z,7.90
2022-11-28T12:47:01.376Z,7.90
2022-11-28T12:49:09.287Z,7.90
2022-11-28T12:51:20.090Z,7.90
2022-11-28T12:53:46.290Z,7.90
2022-11-28T12:56:07.394Z,7.80
2022-11-28T12:58:21.227Z,7.90
2022-11-28T13:00:25.964Z,7.90
2022-11-28T13:03:06.221Z,7.90
2022-11-28T13:05:26.356Z,7.90
2022-11-28T13:07:42.676Z,7.80
2022-11-28T13:09:53.065Z,7.80
2022-11-28T13:12:00.673Z,7.70
2022-11-28T13:14:11.378Z,7.70
2022-11-28T13:16:50.577Z,7.70
2022-11-28T13:19:04.156Z,7.70
2022-11-28T13:21:29.248Z,7.70
2022-11-28T13:23:44.300Z,7.70
2022-11-28T13:26:07.286Z,7.70
2022-11-28T13:28:33.293Z,7.60
2022-11-28T13:30:53.150Z,7.60
2022-11-28T13:33:19.398Z,7.50
2022-11-28T13:35:21.417Z,7.60
2022-11-28T13:40:24.963Z,7.60
2022-11-28T13:45:31.669Z,7.70
2022-11-28T13:47:36.483Z,7.70
2022-11-28T13:49:38.206Z,7.70
2022-11-28T13:51:40.122Z,7.60
2022-11-28T13:53:43.269Z,7.60
2022-11-28T13:55:47.365Z,7.60
2022-11-28T13:57:49.817Z,7.60
2022-11-28T14:00:02.523Z,7.60
2022-11-28T14:02:22.543Z,7.60
2022-11-28T14:04:26.070Z,7.60
2022-11-28T14:06:59.239Z,7.60
2022-11-28T14:09:09.206Z,7.60
2022-11-28T14:11:49.838Z,7.60
2022-11-28T14:14:04.293Z,7.60
2022-11-28T14:16:26.639Z,7.60
2022-11-28T14:19:07.133Z,7.60
2022-11-28T14:21:29.098Z,7.50
2022-11-28T14:23:41.809Z,7.50
2022-11-28T14:25:47.817Z,7.40
2022-11-28T14:27:57.094Z,7.40
2022-11-28T14:30:01.011Z,7.40
2022-11-28T14:34:47.413Z,7.20
2022-11-28T14:37:09.265Z,7.20
2022-11-28T14:39:17.316Z,7.10
2022-11-28T14:41:19.541Z,7.00
2022-11-28T14:43:35.059Z,7.00
2022-11-28T14:45:41.407Z,7.00
2022-11-28T14:48:06.509Z,6.90
2022-11-28T14:50:08.269Z,6.90
2022-11-28T14:52:41.836Z,6.80
2022-11-28T14:54:44.472Z,6.70
2022-11-28T14:56:46.749Z,6.70
2022-11-28T14:58:50.749Z,6.70
2022-11-28T15:00:57.918Z,6.60
2022-11-28T15:03:40.576Z,6.60
2022-11-28T15:05:51.955Z,6.60
2022-11-28T15:08:12.610Z,6.50
2022-11-28T15:10:24.779Z,6.50
2022-11-28T15:13:11.216Z,6.50
2022-11-28T15:15:14.344Z,6.50
2022-11-28T15:17:28.358Z,6.40
2022-11-28T15:19:39.024Z,6.40
2022-11-28T15:21:46.037Z,6.40
2022-11-28T15:23:48.524Z,6.40
2022-11-28T15:25:55.377Z,6.40
2022-11-28T15:27:57.113Z,6.40
2022-11-28T15:30:01.007Z,6.40
2022-11-28T15:32:02.859Z,6.40
2022-11-28T15:34:08.846Z,6.40
2022-11-28T15:36:25.829Z,6.40
2022-11-28T15:38:30.224Z,6.40
2022-11-28T15:40:34.604Z,6.50
2022-11-28T15:42:38.481Z,6.50
2022-11-28T15:44:43.133Z,6.40
2022-11-28T15:46:45.203Z,6.40
2022-11-28T15:48:50.102Z,6.40
2022-11-28T15:50:51.845Z,6.40
2022-11-28T15:52:59.433Z,6.30
2022-11-28T15:55:01.414Z,6.30
2022-11-28T15:57:04.560Z,6.30
2022-11-28T15:59:06.276Z,6.30
2022-11-28T16:01:19.337Z,6.30
2022-11-28T16:03:24.732Z,6.20
2022-11-28T16:05:26.628Z,6.20
2022-11-28T16:07:28.577Z,6.20
2022-11-28T16:09:35.004Z,6.10
2022-11-28T16:11:36.845Z,6.00
2022-11-28T16:13:39.973Z,6.00
2022-11-28T16:15:49.841Z,5.90
2022-11-28T16:17:54.904Z,5.80
2022-11-28T16:19:57.456Z,5.80
2022-11-28T16:22:06.118Z,5.80
2022-11-28T16:24:26.087Z,5.70
2022-11-28T16:26:34.865Z,5.70
2022-11-28T16:28:39.004Z,5.70
2022-11-28T16:30:47.740Z,5.70
2022-11-28T16:32:51.070Z,5.70
2022-11-28T16:34:54.949Z,5.70
2022-11-28T16:36:56.775Z,5.70
2022-11-28T16:39:09.437Z,5.70
2022-11-28T16:41:30.487Z,5.70
2022-11-28T16:43:39.116Z,5.70
2022-11-28T16:45:40.880Z,5.70
2022-11-28T16:47:43.911Z,5.70
2022-11-28T16:50:16.050Z,5.70
2022-11-28T16:52:27.227Z,5.70
2022-11-28T16:54:32.188Z,5.70
2022-11-28T16:56:34.084Z,5.80
2022-11-28T16:58:35.920Z,5.80
2022-11-28T17:00:42.011Z,5.80
2022-11-28T17:02:43.767Z,5.80
2022-11-28T17:04:47.449Z,5.80
2022-11-28T17:06:50.388Z,5.80
2022-11-28T17:08:52.155Z,5.90
2022-11-28T17:10:53.944Z,5.90
2022-11-28T17:12:55.714Z,6.00
2022-11-28T17:14:58.429Z,6.00
2022-11-28T17:17:03.474Z,6.00
2022-11-28T17:19:05.371Z,6.00
2022-11-28T17:21:11.544Z,5.90
2022-11-28T17:23:14.973Z,5.90
2022-11-28T17:25:19.441Z,5.90
2022-11-28T17:27:21.240Z,5.80
2022-11-28T17:29:25.250Z,5.90
2022-11-28T17:31:27.047Z,5.80
2022-11-28T17:33:28.784Z,5.80
2022-11-28T17:35:41.089Z,5.80
2022-11-28T17:37:42.897Z,5.90
2022-11-28T17:40:04.613Z,5.90
2022-11-28T17:42:06.601Z,5.80
2022-11-28T17:44:20.934Z,5.90
2022-11-28T17:46:22.803Z,5.90
2022-11-28T17:48:33.220Z,5.90
2022-11-28T17:50:34.886Z,6.00
2022-11-28T17:52:36.766Z,6.00
2022-11-28T17:54:38.429Z,6.00
2022-11-28T17:56:40.075Z,6.00
2022-11-28T17:58:41.970Z,6.00
2022-11-28T18:00:44.316Z,6.00
2022-11-28T18:02:46.041Z,6.10
2022-11-28T18:04:47.983Z,6.10
2022-11-28T18:06:49.733Z,6.00
2022-11-28T18:08:52.207Z,6.00
2022-11-28T18:11:08.864Z,6.00
2022-11-28T18:13:11.081Z,6.00
2022-11-28T18:15:12.813Z,6.00
2022-11-28T18:17:14.513Z,6.00
2022-11-28T18:19:16.260Z,5.90
2022-11-28T18:21:18.419Z,5.90
2022-11-28T18:23:20.534Z,5.90
2022-11-28T18:25:22.712Z,5.90
2022-11-28T18:27:24.519Z,5.90
2022-11-28T18:29:26.572Z,5.90
2022-11-28T18:31:30.040Z,5.80
2022-11-28T18:33:34.380Z,5.80
2022-11-28T18:35:36.319Z,5.80
2022-11-28T18:37:38.675Z,5.80
2022-11-28T18:39:40.357Z,5.80
2022-11-28T18:41:42.152Z,5.80
2022-11-28T18:43:44.850Z,5.80
2022-11-28T18:45:48.178Z,5.80
2022-11-28T18:47:49.837Z,5.70
2022-11-28T18:49:51.793Z,5.70
2022-11-28T18:51:56.507Z,5.70
2022-11-28T18:53:59.368Z,5.70
2022-11-28T18:56:03.018Z,5.70
2022-11-28T18:58:04.731Z,5.70
2022-11-28T19:00:07.112Z,5.70
2022-11-28T19:02:13.198Z,5.60
2022-11-28T19:04:16.656Z,5.60
2022-11-28T19:06:19.364Z,5.60
2022-11-28T19:08:21.115Z,5.60
2022-11-28T19:10:23.036Z,5.60
2022-11-28T19:12:24.776Z,5.60
2022-11-28T19:14:26.542Z,5.60
2022-11-28T19:16:33.495Z,5.50
2022-11-28T19:18:38.742Z,5.50
2022-11-28T19:20:43.920Z,5.50
2022-11-28T19:22:45.625Z,5.50
2022-11-28T19:24:47.272Z,5.50
2022-11-28T19:26:48.925Z,5.50
2022-11-28T19:28:50.889Z,5.40
2022-11-28T19:30:53.632Z,5.40
2022-11-28T19:32:56.860Z,5.40
2022-11-28T19:34:58.578Z,5.40
2022-11-28T19:37:00.251Z,5.40
2022-11-28T19:39:02.334Z,5.40
2022-11-28T19:41:16.015Z,5.40
2022-11-28T19:43:17.721Z,5.40
2022-11-28T19:45:20.079Z,5.40
2022-11-28T19:47:21.723Z,5.40
2022-11-28T19:49:24.505Z,5.40
2022-11-28T19:51:26.193Z,5.50
2022-11-28T19:53:30.573Z,5.50
2022-11-28T19:55:34.492Z,5.40
2022-11-28T19:57:37.739Z,5.40
2022-11-28T19:59:39.588Z,5.40
2022-11-28T20:01:41.338Z,5.40
2022-11-28T20:03:43.958Z,5.40
2022-11-28T20:05:45.601Z,5.40
2022-11-28T20:07:47.345Z,5.40
2022-11-28T20:09:49.320Z,5.40
2022-11-28T20:11:51.003Z,5.40
2022-11-28T20:14:01.443Z,5.40
2022-11-28T20:16:05.854Z,5.40
2022-11-28T20:18:07.754Z,5.40
2022-11-28T20:20:10.398Z,5.40
2022-11-28T20:22:12.073Z,5.40
2022-11-28T20:24:13.974Z,5.40
2022-11-28T20:26:16.676Z,5.40
2022-11-28T20:28:18.318Z,5.40
2022-11-28T20:30:20.256Z,5.30
2022-11-28T20:32:21.934Z,5.40
2022-11-28T20:34:23.734Z,5.30
2022-11-28T20:36:27.129Z,5.30
2022-11-28T20:38:29.432Z,5.30
2022-11-28T20:40:31.158Z,5.40
2022-11-28T20:42:39.814Z,5.40
2022-11-28T20:44:41.904Z,5.40
2022-11-28T20:46:46.205Z,5.40
2022-11-28T20:48:48.918Z,5.40
2022-11-28T20:50:50.775Z,5.40
2022-11-28T20:52:52.395Z,5.40
2022-11-28T20:54:54.263Z,5.40
2022-11-28T20:57:20.455Z,5.40
2022-11-28T20:59:18.255Z,5.40
2022-11-28T21:01:22.664Z,5.40
2022-11-28T21:03:25.284Z,5.30
2022-11-28T21:05:26.957Z,5.40
2022-11-28T21:07:29.363Z,5.40
2022-11-28T21:09:31.048Z,5.40
2022-11-28T21:11:59.755Z,5.30
2022-11-28T21:13:57.549Z,5.30
2022-11-28T21:16:08.096Z,5.40
2022-11-28T21:18:09.912Z,5.40
2022-11-28T21:20:11.763Z,5.40
2022-11-28T21:22:13.469Z,5.40
2022-11-28T21:24:15.265Z,5.40
2022-11-28T21:26:20.076Z,5.40
2022-11-28T21:28:21.724Z,5.50
2022-11-28T21:30:23.484Z,5.40
2022-11-28T21:32:25.208Z,5.40
2022-11-28T21:34:26.935Z,5.40
2022-11-28T21:36:30.162Z,5.40
2022-11-28T21:38:33.011Z,5.40
2022-11-28T21:40:34.834Z,5.30
2022-11-28T21:42:36.537Z,5.40
2022-11-28T21:44:38.304Z,5.40
2022-11-28T21:46:40.073Z,5.40
2022-11-28T21:48:42.229Z,5.40
2022-11-28T21:50:48.557Z,5.40
2022-11-28T21:52:50.347Z,5.40
2022-11-28T21:54:52.193Z,5.40
2022-11-28T21:56:53.815Z,5.40
2022-11-28T21:58:55.740Z,5.40
2022-11-28T22:00:59.252Z,5.40
2022-11-28T22:03:05.835Z,5.40
2022-11-28T22:05:09.817Z,5.40
2022-11-28T22:07:11.564Z,5.40
2022-11-28T22:09:13.298Z,5.40
2022-11-28T22:11:15.941Z,5.40
2022-11-28T22:13:17.607Z,5.30
2022-11-28T22:15:20.269Z,5.40
2022-11-28T22:17:22.260Z,5.40
2022-11-28T22:19:24.039Z,5.40
2022-11-28T22:21:50.961Z,5.40
2022-11-28T22:23:47.981Z,5.40
2022-11-28T22:25:51.666Z,5.40
2022-11-28T22:27:53.452Z,5.40
2022-11-28T22:29:55.287Z,5.40
2022-11-28T22:31:57.386Z,5.40
2022-11-28T22:33:59.384Z,5.30
2022-11-28T22:36:13.679Z,5.30
2022-11-28T22:38:17.351Z,5.40
2022-11-28T22:40:19.091Z,5.40
2022-11-28T22:42:20.781Z,5.30
2022-11-28T22:44:22.689Z,5.40
2022-11-28T22:46:24.492Z,5.40
2022-11-28T22:48:26.272Z,5.40
2022-11-28T22:50:28.451Z,5.30
2022-11-28T22:52:30.128Z,5.30
2022-11-28T22:54:31.953Z,5.30
2022-11-28T22:56:34.689Z,5.30
2022-11-28T22:58:42.295Z,5.30
2022-11-28T23:00:44.445Z,5.30
2022-11-28T23:02:46.264Z,5.40
2022-11-28T23:04:48.003Z,5.40
2022-11-28T23:06:49.710Z,5.40
2022-11-28T23:08:52.598Z,5.40
2022-11-28T23:10:54.298Z,5.40
2022-11-28T23:12:55.929Z,5.40
2022-11-28T23:14:57.646Z,5.40
2022-11-28T23:16:59.345Z,5.40
2022-11-28T23:19:03.592Z,5.40
2022-11-28T23:21:05.494Z,5.40
2022-11-28T23:23:07.318Z,5.40
2022-11-28T23:25:09.231Z,5.40
2022-11-28T23:27:10.955Z,5.40
2022-11-28T23:29:12.712Z,5.40
2022-11-28T23:31:17.515Z,5.50
2022-11-28T23:33:19.229Z,5.40
2022-11-28T23:35:20.970Z,5.40
2022-11-28T23:37:22.721Z,5.40
2022-11-28T23:39:24.628Z,5.40
2022-11-28T23:41:27.475Z,5.40
2022-11-28T23:43:29.160Z,5.40
2022-11-28T23:45:30.867Z,5.40
2022-11-28T23:47:32.588Z,5.40
2022-11-28T23:49:34.327Z,5.30
2022-11-28T23:51:36.780Z,5.30
2022-11-28T23:53:39.624Z,5.40
2022-11-28T23:55:41.332Z,5.40
2022-11-28T23:57:43.085Z,5.40
2022-11-28T23:59:44.841Z,5.40
